sensor_id;sensor_type;location;lat;lon;timestamp;P1;durP1;ratioP1;P2;durP2;ratioP2
58669;SDS011;44439;47.924;10.198;2024-01-15T00:01:44;12.88;;;6.20;;
58669;SDS011;44439;47.924;10.198;2024-01-15T00:04:10;11.57;;;6.22;;
58669;SDS011;44439;47.924;10.198;2024-01-15T00:06:36;11.27;;;6.90;;
58669;SDS011;44439;47.924;10.198;2024-01-15T00:09:18;11.82;;;6.75;;
58669;SDS011;44439;47.924;10.198;2024-01-15T00:11:43;10.75;;;6.53;;
58669;SDS011;44439;47.924;10.198;2024-01-15T00:14:09;12.15;;;5.93;;
58669;SDS011;44439;47.924;10.198;2024-01-15T00:16:43;8.77;;;5.22;;
58669;SDS011;44439;47.924;10.198;2024-01-15T00:19:09;10.00;;;5.43;;
58669;SDS011;44439;47.924;10.198;2024-01-15T00:21:34;10.15;;;5.50;;
58669;SDS011;44439;47.924;10.198;2024-01-15T00:24:00;9.52;;;4.88;;
58669;SDS011;44439;47.924;10.198;2024-01-15T00:26:25;7.97;;;5.30;;
58669;SDS011;44439;47.924;10.198;2024-01-15T00:28:51;9.57;;;5.07;;
58669;SDS011;44439;47.924;10.198;2024-01-15T00:31:16;7.97;;;4.75;;
58669;SDS011;44439;47.924;10.198;2024-01-15T00:33:43;8.77;;;5.13;;
58669;SDS011;44439;47.924;10.198;2024-01-15T00:36:08;9.82;;;5.30;;
58669;SDS011;44439;47.924;10.198;2024-01-15T00:38:33;13.18;;;5.25;;
58669;SDS011;44439;47.924;10.198;2024-01-15T00:40:59;8.70;;;4.97;;
58669;SDS011;44439;47.924;10.198;2024-01-15T00:43:24;10.20;;;5.38;;
58669;SDS011;44439;47.924;10.198;2024-01-15T00:45:52;8.88;;;5.25;;
58669;SDS011;44439;47.924;10.198;2024-01-15T00:48:17;10.90;;;4.97;;
58669;SDS011;44439;47.924;10.198;2024-01-15T00:50:43;9.63;;;5.43;;
58669;SDS011;44439;47.924;10.198;2024-01-15T00:53:08;9.82;;;5.53;;
58669;SDS011;44439;47.924;10.198;2024-01-15T00:55:34;9.93;;;5.38;;
58669;SDS011;44439;47.924;10.198;2024-01-15T00:57:59;9.95;;;5.10;;
58669;SDS011;44439;47.924;10.198;2024-01-15T01:00:25;8.80;;;5.20;;
58669;SDS011;44439;47.924;10.198;2024-01-15T01:02:51;9.80;;;5.57;;
58669;SDS011;44439;47.924;10.198;2024-01-15T01:05:16;8.80;;;5.30;;
58669;SDS011;44439;47.924;10.198;2024-01-15T01:07:41;9.25;;;5.43;;
58669;SDS011;44439;47.924;10.198;2024-01-15T01:10:07;9.88;;;5.70;;
58669;SDS011;44439;47.924;10.198;2024-01-15T01:12:32;10.00;;;5.47;;
58669;SDS011;44439;47.924;10.198;2024-01-15T01:14:58;9.48;;;5.22;;
58669;SDS011;44439;47.924;10.198;2024-01-15T01:17:23;9.52;;;5.40;;
58669;SDS011;44439;47.924;10.198;2024-01-15T01:19:49;9.73;;;5.90;;
58669;SDS011;44439;47.924;10.198;2024-01-15T01:22:15;9.48;;;5.57;;
58669;SDS011;44439;47.924;10.198;2024-01-15T01:24:41;10.18;;;6.22;;
58669;SDS011;44439;47.924;10.198;2024-01-15T01:27:07;9.18;;;5.18;;
58669;SDS011;44439;47.924;10.198;2024-01-15T01:29:32;10.55;;;6.25;;
58669;SDS011;44439;47.924;10.198;2024-01-15T01:31:57;10.15;;;5.88;;
58669;SDS011;44439;47.924;10.198;2024-01-15T01:34:23;12.18;;;6.28;;
58669;SDS011;44439;47.924;10.198;2024-01-15T01:36:48;11.57;;;6.47;;
58669;SDS011;44439;47.924;10.198;2024-01-15T01:39:14;9.27;;;6.10;;
58669;SDS011;44439;47.924;10.198;2024-01-15T01:41:39;10.15;;;6.05;;
58669;SDS011;44439;47.924;10.198;2024-01-15T01:44:05;12.20;;;6.68;;
58669;SDS011;44439;47.924;10.198;2024-01-15T01:46:30;12.30;;;7.60;;
58669;SDS011;44439;47.924;10.198;2024-01-15T01:48:56;12.65;;;6.90;;
58669;SDS011;44439;47.924;10.198;2024-01-15T01:51:22;12.75;;;6.70;;
58669;SDS011;44439;47.924;10.198;2024-01-15T01:53:48;11.85;;;6.53;;
58669;SDS011;44439;47.924;10.198;2024-01-15T01:56:15;11.90;;;7.20;;
58669;SDS011;44439;47.924;10.198;2024-01-15T01:58:40;12.75;;;7.25;;
58669;SDS011;44439;47.924;10.198;2024-01-15T02:01:06;12.30;;;7.72;;
58669;SDS011;44439;47.924;10.198;2024-01-15T02:03:32;12.80;;;7.90;;
58669;SDS011;44439;47.924;10.198;2024-01-15T02:05:58;15.73;;;8.10;;
58669;SDS011;44439;47.924;10.198;2024-01-15T02:08:25;15.27;;;7.78;;
58669;SDS011;44439;47.924;10.198;2024-01-15T02:10:50;14.60;;;8.90;;
58669;SDS011;44439;47.924;10.198;2024-01-15T02:13:16;15.70;;;8.23;;
58669;SDS011;44439;47.924;10.198;2024-01-15T02:15:42;13.63;;;8.02;;
58669;SDS011;44439;47.924;10.198;2024-01-15T02:18:08;13.40;;;7.82;;
58669;SDS011;44439;47.924;10.198;2024-01-15T02:20:33;15.52;;;8.57;;
58669;SDS011;44439;47.924;10.198;2024-01-15T02:23:05;13.18;;;8.70;;
58669;SDS011;44439;47.924;10.198;2024-01-15T02:25:33;14.25;;;9.15;;
58669;SDS011;44439;47.924;10.198;2024-01-15T02:27:59;13.98;;;8.00;;
58669;SDS011;44439;47.924;10.198;2024-01-15T02:30:25;13.70;;;8.23;;
58669;SDS011;44439;47.924;10.198;2024-01-15T02:32:50;14.40;;;8.55;;
58669;SDS011;44439;47.924;10.198;2024-01-15T02:35:16;15.57;;;7.97;;
58669;SDS011;44439;47.924;10.198;2024-01-15T02:37:41;13.05;;;8.05;;
58669;SDS011;44439;47.924;10.198;2024-01-15T02:40:07;15.50;;;8.23;;
58669;SDS011;44439;47.924;10.198;2024-01-15T02:42:33;13.35;;;8.25;;
58669;SDS011;44439;47.924;10.198;2024-01-15T02:44:58;14.95;;;7.90;;
58669;SDS011;44439;47.924;10.198;2024-01-15T02:47:24;13.40;;;8.10;;
58669;SDS011;44439;47.924;10.198;2024-01-15T02:49:50;14.65;;;8.30;;
58669;SDS011;44439;47.924;10.198;2024-01-15T02:52:15;14.02;;;7.45;;
58669;SDS011;44439;47.924;10.198;2024-01-15T02:54:40;13.73;;;7.95;;
58669;SDS011;44439;47.924;10.198;2024-01-15T02:57:06;12.82;;;7.43;;
58669;SDS011;44439;47.924;10.198;2024-01-15T02:59:31;13.85;;;7.53;;
58669;SDS011;44439;47.924;10.198;2024-01-15T03:01:57;13.52;;;7.70;;
58669;SDS011;44439;47.924;10.198;2024-01-15T03:04:22;14.57;;;7.70;;
58669;SDS011;44439;47.924;10.198;2024-01-15T03:06:47;12.80;;;7.25;;
58669;SDS011;44439;47.924;10.198;2024-01-15T03:09:13;13.02;;;7.50;;
58669;SDS011;44439;47.924;10.198;2024-01-15T03:11:38;12.05;;;6.85;;
58669;SDS011;44439;47.924;10.198;2024-01-15T03:14:04;12.82;;;7.22;;
58669;SDS011;44439;47.924;10.198;2024-01-15T03:16:30;11.43;;;6.63;;
58669;SDS011;44439;47.924;10.198;2024-01-15T03:18:55;13.13;;;6.65;;
58669;SDS011;44439;47.924;10.198;2024-01-15T03:21:20;11.32;;;7.07;;
58669;SDS011;44439;47.924;10.198;2024-01-15T03:23:46;11.52;;;7.13;;
58669;SDS011;44439;47.924;10.198;2024-01-15T03:26:11;12.32;;;6.00;;
58669;SDS011;44439;47.924;10.198;2024-01-15T03:28:36;10.32;;;6.30;;
58669;SDS011;44439;47.924;10.198;2024-01-15T03:31:02;11.70;;;6.60;;
58669;SDS011;44439;47.924;10.198;2024-01-15T03:33:27;12.32;;;6.28;;
58669;SDS011;44439;47.924;10.198;2024-01-15T03:35:53;9.98;;;6.18;;
58669;SDS011;44439;47.924;10.198;2024-01-15T03:38:18;12.35;;;6.60;;
58669;SDS011;44439;47.924;10.198;2024-01-15T03:40:44;11.48;;;6.32;;
58669;SDS011;44439;47.924;10.198;2024-01-15T03:43:09;9.77;;;6.30;;
58669;SDS011;44439;47.924;10.198;2024-01-15T03:45:34;10.23;;;6.00;;
58669;SDS011;44439;47.924;10.198;2024-01-15T03:48:00;9.23;;;5.65;;
58669;SDS011;44439;47.924;10.198;2024-01-15T03:50:25;10.27;;;5.85;;
58669;SDS011;44439;47.924;10.198;2024-01-15T03:52:51;10.07;;;5.75;;
58669;SDS011;44439;47.924;10.198;2024-01-15T03:55:16;9.30;;;5.88;;
58669;SDS011;44439;47.924;10.198;2024-01-15T03:57:41;9.13;;;5.63;;
58669;SDS011;44439;47.924;10.198;2024-01-15T04:00:07;10.32;;;6.15;;
58669;SDS011;44439;47.924;10.198;2024-01-15T04:02:33;10.45;;;6.55;;
58669;SDS011;44439;47.924;10.198;2024-01-15T04:04:58;11.27;;;6.78;;
58669;SDS011;44439;47.924;10.198;2024-01-15T04:07:23;11.48;;;6.55;;
58669;SDS011;44439;47.924;10.198;2024-01-15T04:09:49;10.10;;;6.00;;
58669;SDS011;44439;47.924;10.198;2024-01-15T04:12:14;10.43;;;6.05;;
58669;SDS011;44439;47.924;10.198;2024-01-15T04:14:40;9.93;;;5.90;;
58669;SDS011;44439;47.924;10.198;2024-01-15T04:17:05;11.57;;;5.65;;
58669;SDS011;44439;47.924;10.198;2024-01-15T04:19:33;9.75;;;5.70;;
58669;SDS011;44439;47.924;10.198;2024-01-15T04:21:59;10.90;;;6.25;;
58669;SDS011;44439;47.924;10.198;2024-01-15T04:24:25;11.52;;;6.35;;
58669;SDS011;44439;47.924;10.198;2024-01-15T04:26:50;9.43;;;6.03;;
58669;SDS011;44439;47.924;10.198;2024-01-15T04:29:16;9.85;;;5.93;;
58669;SDS011;44439;47.924;10.198;2024-01-15T04:31:41;11.18;;;6.85;;
58669;SDS011;44439;47.924;10.198;2024-01-15T04:34:06;10.43;;;6.32;;
58669;SDS011;44439;47.924;10.198;2024-01-15T04:36:32;11.80;;;6.43;;
58669;SDS011;44439;47.924;10.198;2024-01-15T04:39:03;11.25;;;6.28;;
58669;SDS011;44439;47.924;10.198;2024-01-15T04:41:29;9.98;;;6.07;;
58669;SDS011;44439;47.924;10.198;2024-01-15T04:43:55;10.95;;;5.82;;
58669;SDS011;44439;47.924;10.198;2024-01-15T04:46:20;13.13;;;6.03;;
58669;SDS011;44439;47.924;10.198;2024-01-15T04:48:45;10.98;;;6.45;;
58669;SDS011;44439;47.924;10.198;2024-01-15T04:51:11;11.13;;;6.65;;
58669;SDS011;44439;47.924;10.198;2024-01-15T04:53:36;11.13;;;6.00;;
58669;SDS011;44439;47.924;10.198;2024-01-15T04:56:02;10.32;;;5.53;;
58669;SDS011;44439;47.924;10.198;2024-01-15T04:58:27;11.10;;;6.78;;
58669;SDS011;44439;47.924;10.198;2024-01-15T05:00:53;12.27;;;6.93;;
58669;SDS011;44439;47.924;10.198;2024-01-15T05:03:19;10.60;;;6.47;;
58669;SDS011;44439;47.924;10.198;2024-01-15T05:05:45;11.38;;;6.00;;
58669;SDS011;44439;47.924;10.198;2024-01-15T05:08:10;9.98;;;6.03;;
58669;SDS011;44439;47.924;10.198;2024-01-15T05:10:35;10.70;;;6.22;;
58669;SDS011;44439;47.924;10.198;2024-01-15T05:13:01;11.45;;;6.40;;
58669;SDS011;44439;47.924;10.198;2024-01-15T05:15:26;12.70;;;6.55;;
58669;SDS011;44439;47.924;10.198;2024-01-15T05:17:51;11.13;;;6.22;;
58669;SDS011;44439;47.924;10.198;2024-01-15T05:20:17;11.35;;;6.55;;
58669;SDS011;44439;47.924;10.198;2024-01-15T05:22:43;10.65;;;5.72;;
58669;SDS011;44439;47.924;10.198;2024-01-15T05:25:08;11.32;;;6.75;;
58669;SDS011;44439;47.924;10.198;2024-01-15T05:27:33;11.48;;;6.82;;
58669;SDS011;44439;47.924;10.198;2024-01-15T05:29:59;12.52;;;6.03;;
58669;SDS011;44439;47.924;10.198;2024-01-15T05:32:24;12.98;;;6.18;;
58669;SDS011;44439;47.924;10.198;2024-01-15T05:34:50;9.75;;;6.15;;
58669;SDS011;44439;47.924;10.198;2024-01-15T05:37:15;12.25;;;6.40;;
58669;SDS011;44439;47.924;10.198;2024-01-15T05:39:42;11.30;;;7.45;;
58669;SDS011;44439;47.924;10.198;2024-01-15T05:42:07;12.27;;;5.72;;
58669;SDS011;44439;47.924;10.198;2024-01-15T05:44:32;8.77;;;5.03;;
58669;SDS011;44439;47.924;10.198;2024-01-15T05:46:57;11.77;;;6.25;;
58669;SDS011;44439;47.924;10.198;2024-01-15T05:49:23;11.95;;;6.57;;
58669;SDS011;44439;47.924;10.198;2024-01-15T05:51:49;11.00;;;6.20;;
58669;SDS011;44439;47.924;10.198;2024-01-15T05:54:18;10.40;;;5.80;;
58669;SDS011;44439;47.924;10.198;2024-01-15T05:56:44;10.75;;;5.78;;
58669;SDS011;44439;47.924;10.198;2024-01-15T05:59:10;10.27;;;5.55;;
58669;SDS011;44439;47.924;10.198;2024-01-15T06:01:35;10.93;;;5.65;;
58669;SDS011;44439;47.924;10.198;2024-01-15T06:04:01;8.50;;;5.60;;
58669;SDS011;44439;47.924;10.198;2024-01-15T06:06:26;10.35;;;5.63;;
58669;SDS011;44439;47.924;10.198;2024-01-15T06:08:52;9.88;;;5.70;;
58669;SDS011;44439;47.924;10.198;2024-01-15T06:11:18;9.50;;;5.55;;
58669;SDS011;44439;47.924;10.198;2024-01-15T06:13:43;9.43;;;5.55;;
58669;SDS011;44439;47.924;10.198;2024-01-15T06:16:15;10.40;;;5.28;;
58669;SDS011;44439;47.924;10.198;2024-01-15T06:18:41;10.35;;;5.60;;
58669;SDS011;44439;47.924;10.198;2024-01-15T06:21:07;11.15;;;6.10;;
58669;SDS011;44439;47.924;10.198;2024-01-15T06:23:35;10.13;;;5.88;;
58669;SDS011;44439;47.924;10.198;2024-01-15T06:26:00;10.40;;;5.57;;
58669;SDS011;44439;47.924;10.198;2024-01-15T06:28:28;9.60;;;5.78;;
58669;SDS011;44439;47.924;10.198;2024-01-15T06:30:54;9.55;;;5.45;;
58669;SDS011;44439;47.924;10.198;2024-01-15T06:33:32;10.70;;;5.95;;
58669;SDS011;44439;47.924;10.198;2024-01-15T06:35:57;10.88;;;5.72;;
58669;SDS011;44439;47.924;10.198;2024-01-15T06:38:23;11.63;;;5.57;;
58669;SDS011;44439;47.924;10.198;2024-01-15T06:40:50;9.10;;;5.13;;
58669;SDS011;44439;47.924;10.198;2024-01-15T06:43:16;11.38;;;5.53;;
58669;SDS011;44439;47.924;10.198;2024-01-15T06:45:42;9.82;;;5.32;;
58669;SDS011;44439;47.924;10.198;2024-01-15T06:48:08;11.05;;;5.68;;
58669;SDS011;44439;47.924;10.198;2024-01-15T06:50:33;10.52;;;6.18;;
58669;SDS011;44439;47.924;10.198;2024-01-15T06:52:59;10.25;;;5.85;;
58669;SDS011;44439;47.924;10.198;2024-01-15T06:55:24;11.05;;;6.78;;
58669;SDS011;44439;47.924;10.198;2024-01-15T06:57:50;11.13;;;6.72;;
58669;SDS011;44439;47.924;10.198;2024-01-15T07:00:16;13.18;;;7.10;;
58669;SDS011;44439;47.924;10.198;2024-01-15T07:02:42;12.20;;;6.10;;
58669;SDS011;44439;47.924;10.198;2024-01-15T07:05:07;11.98;;;6.53;;
58669;SDS011;44439;47.924;10.198;2024-01-15T07:07:33;10.75;;;6.82;;
58669;SDS011;44439;47.924;10.198;2024-01-15T07:09:59;10.43;;;5.90;;
58669;SDS011;44439;47.924;10.198;2024-01-15T07:12:24;13.73;;;7.75;;
58669;SDS011;44439;47.924;10.198;2024-01-15T07:14:50;21.23;;;14.38;;
58669;SDS011;44439;47.924;10.198;2024-01-15T07:17:15;12.43;;;7.78;;
58669;SDS011;44439;47.924;10.198;2024-01-15T07:19:41;14.38;;;8.00;;
58669;SDS011;44439;47.924;10.198;2024-01-15T07:22:06;18.80;;;7.95;;
58669;SDS011;44439;47.924;10.198;2024-01-15T07:24:32;13.20;;;7.82;;
58669;SDS011;44439;47.924;10.198;2024-01-15T07:26:59;12.85;;;7.18;;
58669;SDS011;44439;47.924;10.198;2024-01-15T07:29:25;11.65;;;7.35;;
58669;SDS011;44439;47.924;10.198;2024-01-15T07:31:51;12.77;;;7.20;;
58669;SDS011;44439;47.924;10.198;2024-01-15T07:34:17;12.95;;;7.60;;
58669;SDS011;44439;47.924;10.198;2024-01-15T07:36:46;12.23;;;7.68;;
58669;SDS011;44439;47.924;10.198;2024-01-15T07:39:12;13.20;;;6.85;;
58669;SDS011;44439;47.924;10.198;2024-01-15T07:41:37;23.90;;;15.43;;
58669;SDS011;44439;47.924;10.198;2024-01-15T07:44:02;12.70;;;7.78;;
58669;SDS011;44439;47.924;10.198;2024-01-15T07:46:28;12.82;;;7.68;;
58669;SDS011;44439;47.924;10.198;2024-01-15T07:48:54;10.32;;;6.47;;
58669;SDS011;44439;47.924;10.198;2024-01-15T07:51:21;12.60;;;7.38;;
58669;SDS011;44439;47.924;10.198;2024-01-15T07:53:47;11.55;;;6.97;;
58669;SDS011;44439;47.924;10.198;2024-01-15T07:56:13;11.30;;;6.85;;
58669;SDS011;44439;47.924;10.198;2024-01-15T07:58:38;14.90;;;7.47;;
58669;SDS011;44439;47.924;10.198;2024-01-15T08:01:04;13.32;;;7.68;;
58669;SDS011;44439;47.924;10.198;2024-01-15T08:03:29;13.75;;;7.85;;
58669;SDS011;44439;47.924;10.198;2024-01-15T08:05:55;13.80;;;8.57;;
58669;SDS011;44439;47.924;10.198;2024-01-15T08:08:22;12.18;;;7.18;;
58669;SDS011;44439;47.924;10.198;2024-01-15T08:10:48;13.48;;;8.50;;
58669;SDS011;44439;47.924;10.198;2024-01-15T08:13:14;12.27;;;7.40;;
58669;SDS011;44439;47.924;10.198;2024-01-15T08:15:40;11.10;;;6.78;;
58669;SDS011;44439;47.924;10.198;2024-01-15T08:18:06;15.45;;;6.88;;
58669;SDS011;44439;47.924;10.198;2024-01-15T08:20:31;17.10;;;7.75;;
58669;SDS011;44439;47.924;10.198;2024-01-15T08:22:56;11.48;;;6.32;;
58669;SDS011;44439;47.924;10.198;2024-01-15T08:25:22;15.52;;;9.27;;
58669;SDS011;44439;47.924;10.198;2024-01-15T08:27:47;13.73;;;7.97;;
58669;SDS011;44439;47.924;10.198;2024-01-15T08:30:13;25.55;;;16.42;;
58669;SDS011;44439;47.924;10.198;2024-01-15T08:32:39;18.63;;;11.23;;
58669;SDS011;44439;47.924;10.198;2024-01-15T08:35:07;14.55;;;8.80;;
58669;SDS011;44439;47.924;10.198;2024-01-15T08:37:33;12.43;;;7.68;;
58669;SDS011;44439;47.924;10.198;2024-01-15T08:39:58;11.60;;;6.88;;
58669;SDS011;44439;47.924;10.198;2024-01-15T08:42:24;10.75;;;6.18;;
58669;SDS011;44439;47.924;10.198;2024-01-15T08:44:49;13.20;;;7.65;;
58669;SDS011;44439;47.924;10.198;2024-01-15T08:47:15;13.02;;;7.55;;
58669;SDS011;44439;47.924;10.198;2024-01-15T08:49:41;15.23;;;8.10;;
58669;SDS011;44439;47.924;10.198;2024-01-15T08:52:08;13.65;;;8.02;;
58669;SDS011;44439;47.924;10.198;2024-01-15T08:54:59;12.07;;;7.05;;
58669;SDS011;44439;47.924;10.198;2024-01-15T08:57:43;12.35;;;6.40;;
58669;SDS011;44439;47.924;10.198;2024-01-15T09:00:45;14.45;;;6.22;;
58669;SDS011;44439;47.924;10.198;2024-01-15T09:07:03;13.05;;;5.57;;
58669;SDS011;44439;47.924;10.198;2024-01-15T09:09:29;10.02;;;5.35;;
58669;SDS011;44439;47.924;10.198;2024-01-15T09:11:55;11.82;;;6.38;;
58669;SDS011;44439;47.924;10.198;2024-01-15T09:14:21;10.70;;;5.85;;
58669;SDS011;44439;47.924;10.198;2024-01-15T09:22:44;11.07;;;6.15;;
58669;SDS011;44439;47.924;10.198;2024-01-15T09:25:10;13.15;;;6.47;;
58669;SDS011;44439;47.924;10.198;2024-01-15T09:27:35;11.88;;;6.22;;
58669;SDS011;44439;47.924;10.198;2024-01-15T09:30:02;11.25;;;5.90;;
58669;SDS011;44439;47.924;10.198;2024-01-15T09:32:28;11.55;;;6.95;;
58669;SDS011;44439;47.924;10.198;2024-01-15T09:34:53;9.80;;;5.97;;
58669;SDS011;44439;47.924;10.198;2024-01-15T09:37:18;10.40;;;6.00;;
58669;SDS011;44439;47.924;10.198;2024-01-15T09:39:44;13.25;;;6.47;;
58669;SDS011;44439;47.924;10.198;2024-01-15T09:42:09;13.00;;;6.75;;
58669;SDS011;44439;47.924;10.198;2024-01-15T09:44:58;10.23;;;5.72;;
58669;SDS011;44439;47.924;10.198;2024-01-15T09:47:24;11.02;;;6.25;;
58669;SDS011;44439;47.924;10.198;2024-01-15T09:49:50;10.02;;;5.55;;
58669;SDS011;44439;47.924;10.198;2024-01-15T09:52:15;8.02;;;4.63;;
58669;SDS011;44439;47.924;10.198;2024-01-15T09:54:43;9.93;;;4.82;;
58669;SDS011;44439;47.924;10.198;2024-01-15T09:57:08;10.07;;;5.03;;
58669;SDS011;44439;47.924;10.198;2024-01-15T09:59:34;28.15;;;14.15;;
58669;SDS011;44439;47.924;10.198;2024-01-15T10:02:00;14.55;;;8.07;;
58669;SDS011;44439;47.924;10.198;2024-01-15T10:04:27;19.27;;;10.60;;
58669;SDS011;44439;47.924;10.198;2024-01-15T10:06:52;9.77;;;6.40;;
58669;SDS011;44439;47.924;10.198;2024-01-15T10:09:18;8.68;;;5.20;;
58669;SDS011;44439;47.924;10.198;2024-01-15T10:11:44;8.68;;;4.38;;
58669;SDS011;44439;47.924;10.198;2024-01-15T10:14:10;8.13;;;4.25;;
58669;SDS011;44439;47.924;10.198;2024-01-15T10:16:39;9.75;;;4.50;;
58669;SDS011;44439;47.924;10.198;2024-01-15T10:19:04;7.43;;;4.28;;
58669;SDS011;44439;47.924;10.198;2024-01-15T10:21:31;11.15;;;6.00;;
58669;SDS011;44439;47.924;10.198;2024-01-15T10:23:59;11.07;;;5.78;;
58669;SDS011;44439;47.924;10.198;2024-01-15T10:26:25;9.52;;;5.40;;
58669;SDS011;44439;47.924;10.198;2024-01-15T10:28:51;8.80;;;4.68;;
58669;SDS011;44439;47.924;10.198;2024-01-15T10:31:17;7.25;;;3.92;;
58669;SDS011;44439;47.924;10.198;2024-01-15T10:33:44;7.10;;;4.15;;
58669;SDS011;44439;47.924;10.198;2024-01-15T10:36:10;6.63;;;3.85;;
58669;SDS011;44439;47.924;10.198;2024-01-15T10:38:36;6.85;;;3.58;;
58669;SDS011;44439;47.924;10.198;2024-01-15T10:41:03;10.68;;;4.20;;
58669;SDS011;44439;47.924;10.198;2024-01-15T10:43:29;11.95;;;6.68;;
58669;SDS011;44439;47.924;10.198;2024-01-15T10:45:54;8.52;;;5.22;;
58669;SDS011;44439;47.924;10.198;2024-01-15T10:48:20;8.93;;;5.78;;
58669;SDS011;44439;47.924;10.198;2024-01-15T10:50:46;9.80;;;5.03;;
58669;SDS011;44439;47.924;10.198;2024-01-15T10:53:13;10.43;;;6.05;;
58669;SDS011;44439;47.924;10.198;2024-01-15T10:55:39;10.80;;;6.03;;
58669;SDS011;44439;47.924;10.198;2024-01-15T10:58:06;11.70;;;6.10;;
58669;SDS011;44439;47.924;10.198;2024-01-15T11:00:32;13.15;;;6.75;;
58669;SDS011;44439;47.924;10.198;2024-01-15T11:02:58;13.20;;;6.55;;
58669;SDS011;44439;47.924;10.198;2024-01-15T11:05:26;12.38;;;6.15;;
58669;SDS011;44439;47.924;10.198;2024-01-15T11:07:55;13.70;;;7.53;;
58669;SDS011;44439;47.924;10.198;2024-01-15T11:23:45;13.73;;;7.00;;
58669;SDS011;44439;47.924;10.198;2024-01-15T11:26:31;13.65;;;7.68;;
58669;SDS011;44439;47.924;10.198;2024-01-15T11:34:03;12.57;;;7.65;;
58669;SDS011;44439;47.924;10.198;2024-01-15T11:41:56;10.32;;;6.38;;
58669;SDS011;44439;47.924;10.198;2024-01-15T11:44:22;11.00;;;6.13;;
58669;SDS011;44439;47.924;10.198;2024-01-15T11:46:57;12.40;;;7.03;;
58669;SDS011;44439;47.924;10.198;2024-01-15T11:49:28;12.75;;;6.82;;
58669;SDS011;44439;47.924;10.198;2024-01-15T11:52:18;11.88;;;6.80;;
58669;SDS011;44439;47.924;10.198;2024-01-15T11:57:52;11.77;;;6.13;;
58669;SDS011;44439;47.924;10.198;2024-01-15T12:00:19;11.05;;;6.55;;
58669;SDS011;44439;47.924;10.198;2024-01-15T12:02:46;9.60;;;6.47;;
58669;SDS011;44439;47.924;10.198;2024-01-15T12:05:12;11.88;;;6.10;;
58669;SDS011;44439;47.924;10.198;2024-01-15T12:07:39;11.98;;;6.75;;
58669;SDS011;44439;47.924;10.198;2024-01-15T12:10:09;10.23;;;6.22;;
58669;SDS011;44439;47.924;10.198;2024-01-15T12:15:49;10.05;;;5.80;;
58669;SDS011;44439;47.924;10.198;2024-01-15T12:18:16;10.60;;;5.80;;
58669;SDS011;44439;47.924;10.198;2024-01-15T12:20:43;10.68;;;5.88;;
58669;SDS011;44439;47.924;10.198;2024-01-15T12:23:09;10.02;;;5.85;;
58669;SDS011;44439;47.924;10.198;2024-01-15T12:25:38;9.75;;;5.28;;
58669;SDS011;44439;47.924;10.198;2024-01-15T12:28:04;7.38;;;4.90;;
58669;SDS011;44439;47.924;10.198;2024-01-15T12:30:30;8.50;;;4.93;;
58669;SDS011;44439;47.924;10.198;2024-01-15T12:33:02;9.13;;;5.53;;
58669;SDS011;44439;47.924;10.198;2024-01-15T12:35:31;10.05;;;4.82;;
58669;SDS011;44439;47.924;10.198;2024-01-15T12:37:56;8.40;;;4.85;;
58669;SDS011;44439;47.924;10.198;2024-01-15T12:40:22;8.27;;;5.28;;
58669;SDS011;44439;47.924;10.198;2024-01-15T12:42:48;9.07;;;5.05;;
58669;SDS011;44439;47.924;10.198;2024-01-15T12:45:14;9.38;;;5.10;;
58669;SDS011;44439;47.924;10.198;2024-01-15T12:47:41;9.15;;;4.75;;
58669;SDS011;44439;47.924;10.198;2024-01-15T12:50:10;8.40;;;4.28;;
58669;SDS011;44439;47.924;10.198;2024-01-15T12:52:36;7.60;;;4.32;;
58669;SDS011;44439;47.924;10.198;2024-01-15T12:55:03;7.82;;;4.78;;
58669;SDS011;44439;47.924;10.198;2024-01-15T12:57:30;5.60;;;3.50;;
58669;SDS011;44439;47.924;10.198;2024-01-15T12:59:55;7.97;;;4.63;;
58669;SDS011;44439;47.924;10.198;2024-01-15T13:02:20;7.47;;;4.35;;
58669;SDS011;44439;47.924;10.198;2024-01-15T13:04:46;7.28;;;4.47;;
58669;SDS011;44439;47.924;10.198;2024-01-15T13:07:11;7.53;;;4.40;;
58669;SDS011;44439;47.924;10.198;2024-01-15T13:09:36;7.25;;;4.28;;
58669;SDS011;44439;47.924;10.198;2024-01-15T13:12:02;7.50;;;4.15;;
58669;SDS011;44439;47.924;10.198;2024-01-15T13:14:28;7.10;;;4.65;;
58669;SDS011;44439;47.924;10.198;2024-01-15T13:16:53;7.88;;;4.25;;
58669;SDS011;44439;47.924;10.198;2024-01-15T13:19:19;6.38;;;4.05;;
58669;SDS011;44439;47.924;10.198;2024-01-15T13:21:46;7.35;;;4.47;;
58669;SDS011;44439;47.924;10.198;2024-01-15T13:24:12;6.63;;;3.90;;
58669;SDS011;44439;47.924;10.198;2024-01-15T13:26:37;7.38;;;4.40;;
58669;SDS011;44439;47.924;10.198;2024-01-15T13:29:03;5.55;;;3.47;;
58669;SDS011;44439;47.924;10.198;2024-01-15T13:31:29;7.60;;;3.90;;
58669;SDS011;44439;47.924;10.198;2024-01-15T13:33:55;5.65;;;3.38;;
58669;SDS011;44439;47.924;10.198;2024-01-15T13:36:21;8.98;;;5.40;;
58669;SDS011;44439;47.924;10.198;2024-01-15T13:38:51;5.32;;;3.83;;
58669;SDS011;44439;47.924;10.198;2024-01-15T13:41:18;6.60;;;3.97;;
58669;SDS011;44439;47.924;10.198;2024-01-15T13:43:50;6.53;;;3.55;;
58669;SDS011;44439;47.924;10.198;2024-01-15T13:46:16;7.18;;;3.58;;
58669;SDS011;44439;47.924;10.198;2024-01-15T13:48:42;5.70;;;3.58;;
58669;SDS011;44439;47.924;10.198;2024-01-15T13:51:07;4.50;;;3.10;;
58669;SDS011;44439;47.924;10.198;2024-01-15T13:53:33;7.30;;;4.35;;
58669;SDS011;44439;47.924;10.198;2024-01-15T13:55:58;6.90;;;4.35;;
58669;SDS011;44439;47.924;10.198;2024-01-15T13:58:24;5.90;;;4.18;;
58669;SDS011;44439;47.924;10.198;2024-01-15T14:00:50;6.90;;;4.75;;
58669;SDS011;44439;47.924;10.198;2024-01-15T14:03:16;5.25;;;3.55;;
58669;SDS011;44439;47.924;10.198;2024-01-15T14:05:41;6.13;;;3.90;;
58669;SDS011;44439;47.924;10.198;2024-01-15T14:08:06;5.35;;;3.45;;
58669;SDS011;44439;47.924;10.198;2024-01-15T14:10:41;6.78;;;4.03;;
58669;SDS011;44439;47.924;10.198;2024-01-15T14:13:25;7.90;;;3.80;;
58669;SDS011;44439;47.924;10.198;2024-01-15T14:15:59;5.13;;;3.17;;
58669;SDS011;44439;47.924;10.198;2024-01-15T14:18:44;6.65;;;3.38;;
58669;SDS011;44439;47.924;10.198;2024-01-15T14:21:23;6.25;;;3.53;;
58669;SDS011;44439;47.924;10.198;2024-01-15T14:24:08;6.38;;;3.55;;
58669;SDS011;44439;47.924;10.198;2024-01-15T14:26:45;4.68;;;3.03;;
58669;SDS011;44439;47.924;10.198;2024-01-15T14:29:26;5.80;;;3.67;;
58669;SDS011;44439;47.924;10.198;2024-01-15T14:31:58;7.00;;;3.75;;
58669;SDS011;44439;47.924;10.198;2024-01-15T14:34:28;5.97;;;4.25;;
58669;SDS011;44439;47.924;10.198;2024-01-15T14:40:05;9.88;;;4.68;;
58669;SDS011;44439;47.924;10.198;2024-01-15T14:43:21;8.45;;;3.78;;
58669;SDS011;44439;47.924;10.198;2024-01-15T14:49:33;8.23;;;3.90;;
58669;SDS011;44439;47.924;10.198;2024-01-15T14:51:59;8.68;;;4.95;;
58669;SDS011;44439;47.924;10.198;2024-01-15T14:54:25;20.45;;;13.63;;
58669;SDS011;44439;47.924;10.198;2024-01-15T14:56:50;9.25;;;4.53;;
58669;SDS011;44439;47.924;10.198;2024-01-15T14:59:16;8.27;;;4.70;;
58669;SDS011;44439;47.924;10.198;2024-01-15T15:01:41;11.77;;;4.90;;
58669;SDS011;44439;47.924;10.198;2024-01-15T15:04:07;8.32;;;4.38;;
58669;SDS011;44439;47.924;10.198;2024-01-15T15:06:33;25.52;;;6.88;;
58669;SDS011;44439;47.924;10.198;2024-01-15T15:08:58;10.05;;;4.70;;
58669;SDS011;44439;47.924;10.198;2024-01-15T15:11:24;8.05;;;4.88;;